createdAt,value
2022-09-07T00:00:54.588Z,15.65
2022-09-07T00:01:51.589Z,15.62
2022-09-07T00:02:51.601Z,15.61
2022-09-07T00:03:51.586Z,15.61
2022-09-07T00:04:51.531Z,15.59
2022-09-07T00:05:51.510Z,15.58
2022-09-07T00:06:51.524Z,15.57
2022-09-07T00:07:51.472Z,15.61
2022-09-07T00:08:51.492Z,15.61
2022-09-07T00:09:51.470Z,15.62
2022-09-07T00:10:51.530Z,15.62
2022-09-07T00:11:51.462Z,15.64
2022-09-07T00:12:51.459Z,15.64
2022-09-07T00:13:51.483Z,15.64
2022-09-07T00:14:51.453Z,15.65
2022-09-07T00:15:51.500Z,15.67
2022-09-07T00:16:51.445Z,15.67
2022-09-07T00:17:51.415Z,15.65
2022-09-07T00:18:51.384Z,15.67
2022-09-07T00:19:54.336Z,15.67
2022-09-07T00:20:54.310Z,15.68
2022-09-07T00:21:51.296Z,15.67
2022-09-07T00:22:51.278Z,15.67
2022-09-07T00:23:51.297Z,15.67
2022-09-07T00:24:51.346Z,15.68
2022-09-07T00:25:54.105Z,15.68
2022-09-07T00:26:51.307Z,15.70
2022-09-07T00:27:51.210Z,15.70
2022-09-07T00:28:51.218Z,15.72
2022-09-07T00:29:51.189Z,15.73
2022-09-07T00:30:51.179Z,15.72
2022-09-07T00:31:51.262Z,15.73
2022-09-07T00:32:51.170Z,15.76
2022-09-07T00:33:51.110Z,15.75
2022-09-07T00:34:51.109Z,15.76
2022-09-07T00:35:51.091Z,15.76
2022-09-07T00:36:51.081Z,15.75
2022-09-07T00:37:51.112Z,15.76
2022-09-07T00:38:51.063Z,15.76
2022-09-07T00:39:54.113Z,15.76
2022-09-07T00:40:54.043Z,15.76
2022-09-07T00:41:51.011Z,15.76
2022-09-07T00:42:51.003Z,15.75
2022-09-07T00:43:51.018Z,15.75
2022-09-07T00:44:50.964Z,15.73
2022-09-07T00:45:50.944Z,15.75
2022-09-07T00:46:51.010Z,15.75
2022-09-07T00:47:50.925Z,15.73
2022-09-07T00:48:50.967Z,15.72
2022-09-07T00:49:50.906Z,15.72
2022-09-07T00:50:50.885Z,15.72
2022-09-07T00:51:50.876Z,15.72
2022-09-07T00:52:50.849Z,15.73
2022-09-07T00:53:50.858Z,15.73
2022-09-07T00:54:50.852Z,15.75
2022-09-07T00:55:50.821Z,15.76
2022-09-07T00:56:50.820Z,15.79
2022-09-07T00:57:50.790Z,15.79
2022-09-07T00:58:50.775Z,15.79
2022-09-07T00:59:53.796Z,15.79
2022-09-07T01:00:53.770Z,15.82
2022-09-07T01:01:50.824Z,15.79
2022-09-07T01:02:50.825Z,15.79
2022-09-07T01:03:50.715Z,15.79
2022-09-07T01:04:50.726Z,15.80
2022-09-07T01:05:50.675Z,15.79
2022-09-07T01:06:50.668Z,15.77
2022-09-07T01:07:50.645Z,15.76
2022-09-07T01:08:50.647Z,15.75
2022-09-07T01:09:50.649Z,15.73
2022-09-07T01:10:50.599Z,15.76
2022-09-07T01:11:50.588Z,15.75
2022-09-07T01:12:50.592Z,15.73
2022-09-07T01:13:50.583Z,15.75
2022-09-07T01:14:50.579Z,15.75
2022-09-07T01:15:50.654Z,15.75
2022-09-07T01:16:50.534Z,15.72
2022-09-07T01:17:50.517Z,15.72
2022-09-07T01:18:50.499Z,15.73
2022-09-07T01:19:53.536Z,15.73
2022-09-07T01:20:53.500Z,15.76
2022-09-07T01:21:50.463Z,15.76
2022-09-07T01:22:50.451Z,15.76
2022-09-07T01:23:50.432Z,15.79
2022-09-07T01:24:50.412Z,15.79
2022-09-07T01:25:50.413Z,15.77
2022-09-07T01:26:50.453Z,15.77
2022-09-07T01:27:50.375Z,15.80
2022-09-07T01:28:50.356Z,15.82
2022-09-07T01:29:50.346Z,15.80
2022-09-07T01:30:50.394Z,15.80
2022-09-07T01:31:50.316Z,15.80
2022-09-07T01:32:50.507Z,15.80
2022-09-07T01:33:50.294Z,15.82
2022-09-07T01:34:50.273Z,15.80
2022-09-07T01:35:50.258Z,15.79
2022-09-07T01:36:50.275Z,15.77
2022-09-07T01:37:53.938Z,15.76
2022-09-07T01:38:51.243Z,15.76
2022-09-07T01:39:53.293Z,15.77
2022-09-07T01:40:53.217Z,15.80
2022-09-07T01:41:50.223Z,15.79
2022-09-07T01:42:50.161Z,15.80
2022-09-07T01:43:50.147Z,15.80
2022-09-07T01:44:50.133Z,15.80
2022-09-07T01:45:50.164Z,15.82
2022-09-07T01:46:50.351Z,15.82
2022-09-07T01:47:50.084Z,15.82
2022-09-07T01:48:50.083Z,15.80
2022-09-07T01:49:50.065Z,15.79
2022-09-07T01:50:50.065Z,15.77
2022-09-07T01:51:50.035Z,15.76
2022-09-07T01:52:50.055Z,15.77
2022-09-07T01:53:50.013Z,15.79
2022-09-07T01:54:49.995Z,15.79
2022-09-07T01:55:49.979Z,15.79
2022-09-07T01:56:49.968Z,15.80
2022-09-07T01:57:49.977Z,15.80
2022-09-07T01:58:49.942Z,15.82
2022-09-07T01:59:52.928Z,15.79
2022-09-07T02:00:52.939Z,15.83
2022-09-07T02:01:49.920Z,15.82
2022-09-07T02:02:49.996Z,15.79
2022-09-07T02:03:49.880Z,15.76
2022-09-07T02:04:49.859Z,15.75
2022-09-07T02:05:49.840Z,15.73
2022-09-07T02:06:49.907Z,15.73
2022-09-07T02:07:49.841Z,15.73
2022-09-07T02:08:49.802Z,15.75
2022-09-07T02:09:49.788Z,15.76
2022-09-07T02:10:49.772Z,15.75
2022-09-07T02:11:49.760Z,15.75
2022-09-07T02:12:49.783Z,15.76
2022-09-07T02:13:49.768Z,15.77
2022-09-07T02:14:52.728Z,15.77
2022-09-07T02:15:49.772Z,15.79
2022-09-07T02:16:49.685Z,15.76
2022-09-07T02:17:49.716Z,15.77
2022-09-07T02:18:49.664Z,15.77
2022-09-07T02:19:52.639Z,15.77
2022-09-07T02:20:52.657Z,15.80
2022-09-07T02:21:49.616Z,15.77
2022-09-07T02:22:49.662Z,15.77
2022-09-07T02:23:49.597Z,15.76
2022-09-07T02:24:49.593Z,15.75
2022-09-07T02:25:49.558Z,15.75
2022-09-07T02:26:49.568Z,15.75
2022-09-07T02:27:49.536Z,15.73
2022-09-07T02:28:49.556Z,15.73
2022-09-07T02:29:49.511Z,15.76
2022-09-07T02:30:49.530Z,15.76
2022-09-07T02:31:49.500Z,15.76
2022-09-07T02:32:49.522Z,15.75
2022-09-07T02:33:49.463Z,15.75
2022-09-07T02:34:49.434Z,15.75
2022-09-07T02:35:49.421Z,15.75
2022-09-07T02:36:49.410Z,15.76
2022-09-07T02:37:49.400Z,15.77
2022-09-07T02:38:49.403Z,15.76
2022-09-07T02:39:52.451Z,15.76
2022-09-07T02:40:52.377Z,15.77
2022-09-07T02:41:49.356Z,15.75
2022-09-07T02:42:49.325Z,15.73
2022-09-07T02:43:49.317Z,15.72
2022-09-07T02:44:49.346Z,15.73
2022-09-07T02:45:49.377Z,15.72
2022-09-07T02:46:49.288Z,15.72
2022-09-07T02:47:49.257Z,15.72
2022-09-07T02:48:49.254Z,15.72
2022-09-07T02:49:49.248Z,15.72
2022-09-07T02:50:49.262Z,15.72
2022-09-07T02:51:49.220Z,15.72
2022-09-07T02:52:49.184Z,15.72
2022-09-07T02:53:49.180Z,15.75
2022-09-07T02:54:49.169Z,15.76
2022-09-07T02:55:49.173Z,15.75
2022-09-07T02:56:49.142Z,15.76
2022-09-07T02:57:49.123Z,15.77
2022-09-07T02:58:49.101Z,15.77
2022-09-07T02:59:52.092Z,15.79
2022-09-07T03:00:52.122Z,15.82
2022-09-07T03:01:49.123Z,15.80
2022-09-07T03:02:49.124Z,15.80
2022-09-07T03:03:49.053Z,15.83
2022-09-07T03:04:49.024Z,15.84
2022-09-07T03:05:49.039Z,15.86
2022-09-07T03:06:48.995Z,15.86
2022-09-07T03:07:49.027Z,15.88
2022-09-07T03:08:48.971Z,15.90
2022-09-07T03:09:48.960Z,15.90
2022-09-07T03:10:48.938Z,15.88
2022-09-07T03:11:48.924Z,15.90
2022-09-07T03:12:48.937Z,15.90
2022-09-07T03:13:48.906Z,15.91
2022-09-07T03:14:48.898Z,15.90
2022-09-07T03:15:52.450Z,15.91
2022-09-07T03:16:49.859Z,15.91
2022-09-07T03:17:48.857Z,15.91
2022-09-07T03:18:48.832Z,15.91
2022-09-07T03:19:51.820Z,15.92
2022-09-07T03:20:51.845Z,15.94
2022-09-07T03:21:48.815Z,15.90
2022-09-07T03:22:48.774Z,15.91
2022-09-07T03:23:51.671Z,15.92
2022-09-07T03:24:48.770Z,15.92
2022-09-07T03:25:48.738Z,15.91
2022-09-07T03:26:48.756Z,15.91
2022-09-07T03:27:48.711Z,15.92
2022-09-07T03:28:48.721Z,15.91
2022-09-07T03:29:48.690Z,15.92
2022-09-07T03:30:48.721Z,15.94
2022-09-07T03:31:48.684Z,15.94
2022-09-07T03:32:48.625Z,15.94
2022-09-07T03:33:48.638Z,15.95
2022-09-07T03:34:48.607Z,15.97
2022-09-07T03:35:48.607Z,15.97
2022-09-07T03:36:48.577Z,15.98
2022-09-07T03:37:48.568Z,16.00
2022-09-07T03:38:48.578Z,16.00
2022-09-07T03:39:51.556Z,15.98
2022-09-07T03:40:51.532Z,15.98
2022-09-07T03:41:48.529Z,15.95
2022-09-07T03:42:48.490Z,15.94
2022-09-07T03:43:48.509Z,15.94
2022-09-07T03:44:48.462Z,15.95
2022-09-07T03:45:48.493Z,15.95
2022-09-07T03:46:48.459Z,15.94
2022-09-07T03:47:48.422Z,15.94
2022-09-07T03:48:48.436Z,15.95
2022-09-07T03:49:48.393Z,15.95
2022-09-07T03:50:48.400Z,15.95
2022-09-07T03:51:48.384Z,15.94
2022-09-07T03:52:48.349Z,15.95
2022-09-07T03:53:48.371Z,15.95
2022-09-07T03:54:48.347Z,15.97
2022-09-07T03:55:48.315Z,15.97
2022-09-07T03:56:48.319Z,15.98
2022-09-07T03:57:48.284Z,16.00
2022-09-07T03:58:48.297Z,16.01
2022-09-07T03:59:51.296Z,16.01
2022-09-07T04:00:51.260Z,16.01
2022-09-07T04:01:48.317Z,16.00
2022-09-07T04:02:48.287Z,16.00
2022-09-07T04:03:48.225Z,15.98
2022-09-07T04:04:48.229Z,15.95
2022-09-07T04:05:48.180Z,15.95
2022-09-07T04:06:48.163Z,15.97
2022-09-07T04:07:48.148Z,15.98
2022-09-07T04:08:48.132Z,15.95
2022-09-07T04:09:48.121Z,15.91
2022-09-07T04:10:48.148Z,15.86
2022-09-07T04:11:48.095Z,15.84
2022-09-07T04:12:48.074Z,15.84
2022-09-07T04:13:48.062Z,15.86
2022-09-07T04:14:48.053Z,15.88
2022-09-07T04:15:50.986Z,15.88
2022-09-07T04:16:49.055Z,15.84
2022-09-07T04:17:48.015Z,15.80
2022-09-07T04:18:48.002Z,15.76
2022-09-07T04:19:50.983Z,15.72
2022-09-07T04:20:51.046Z,15.72
2022-09-07T04:21:47.955Z,15.65
2022-09-07T04:22:50.466Z,15.58
2022-09-07T04:23:48.928Z,15.58
2022-09-07T04:24:47.906Z,15.57
2022-09-07T04:25:47.894Z,15.55
2022-09-07T04:26:48.060Z,15.54
2022-09-07T04:27:47.858Z,15.51
2022-09-07T04:28:47.858Z,15.49
2022-09-07T04:29:47.838Z,15.49
2022-09-07T04:30:47.860Z,15.51
2022-09-07T04:31:47.815Z,15.49
2022-09-07T04:32:47.840Z,15.47
2022-09-07T04:33:47.809Z,15.49
2022-09-07T04:34:47.770Z,15.49
2022-09-07T04:35:47.761Z,15.51
2022-09-07T04:36:47.742Z,15.51
2022-09-07T04:37:47.761Z,15.51
2022-09-07T04:38:47.713Z,15.52
2022-09-07T04:39:50.760Z,15.52
2022-09-07T04:40:50.705Z,15.52
2022-09-07T04:41:47.692Z,15.51
2022-09-07T04:42:47.657Z,15.54
2022-09-07T04:43:47.664Z,15.57
2022-09-07T04:44:47.635Z,15.57
2022-09-07T04:45:47.643Z,15.58
2022-09-07T04:46:47.606Z,15.59
2022-09-07T04:47:47.597Z,15.59
2022-09-07T04:48:47.596Z,15.59
2022-09-07T04:49:47.586Z,15.58
2022-09-07T04:50:47.546Z,15.55
2022-09-07T04:51:47.543Z,15.54
2022-09-07T04:52:47.522Z,15.52
2022-09-07T04:53:47.511Z,15.52
2022-09-07T04:54:47.542Z,15.51
2022-09-07T04:55:47.480Z,15.51
2022-09-07T04:56:47.467Z,15.49
2022-09-07T04:57:47.449Z,15.51
2022-09-07T04:58:47.440Z,15.49
2022-09-07T04:59:50.458Z,15.51
2022-09-07T05:00:50.445Z,15.52
2022-09-07T05:01:47.442Z,15.52
2022-09-07T05:02:47.497Z,15.55
2022-09-07T05:03:47.374Z,15.57
2022-09-07T05:04:57.336Z,15.58
2022-09-07T05:05:47.329Z,15.61
2022-09-07T05:06:48.278Z,15.64
2022-09-07T05:07:47.360Z,15.64
2022-09-07T05:08:47.380Z,15.64
2022-09-07T05:09:47.290Z,15.65
2022-09-07T05:10:47.258Z,15.67
2022-09-07T05:11:48.013Z,15.65
2022-09-07T05:12:47.229Z,15.64
2022-09-07T05:13:47.219Z,15.62
2022-09-07T05:14:47.229Z,15.62
2022-09-07T05:15:47.215Z,15.64
2022-09-07T05:16:48.005Z,15.64
2022-09-07T05:17:47.203Z,15.64
2022-09-07T05:18:47.182Z,15.64
2022-09-07T05:19:50.225Z,15.64
2022-09-07T05:20:50.134Z,15.65
2022-09-07T05:21:47.872Z,15.64
2022-09-07T05:22:47.114Z,15.62
2022-09-07T05:23:47.083Z,15.62
2022-09-07T05:24:47.064Z,15.64
2022-09-07T05:25:47.124Z,15.65
2022-09-07T05:26:48.515Z,15.67
2022-09-07T05:27:47.035Z,15.68
2022-09-07T05:28:47.007Z,15.70
2022-09-07T05:30:03.721Z,15.72
2022-09-07T05:31:49.447Z,15.76
2022-09-07T05:32:46.975Z,15.76
2022-09-07T05:34:50.898Z,15.77
2022-09-07T05:35:46.917Z,15.82
2022-09-07T05:36:47.670Z,15.84
2022-09-07T05:37:46.889Z,15.88
2022-09-07T05:38:46.870Z,15.90
2022-09-07T05:39:49.921Z,15.90
2022-09-07T05:40:49.851Z,15.94
2022-09-07T05:41:47.600Z,15.94
2022-09-07T05:42:46.900Z,15.95
2022-09-07T05:44:47.788Z,15.98
2022-09-07T05:45:46.804Z,15.97
2022-09-07T05:46:47.534Z,15.97
2022-09-07T05:47:46.820Z,15.98
2022-09-07T05:48:46.823Z,15.98
2022-09-07T05:49:46.745Z,15.97
2022-09-07T05:50:46.734Z,15.97
2022-09-07T05:51:47.464Z,15.98
2022-09-07T05:52:46.704Z,16.01
2022-09-07T05:53:46.666Z,16.01
2022-09-07T05:54:46.713Z,16.04
2022-09-07T05:55:46.635Z,16.08
2022-09-07T05:56:47.398Z,16.10
2022-09-07T05:57:46.645Z,16.12
2022-09-07T05:58:46.596Z,16.13
2022-09-07T05:59:49.606Z,16.15
2022-09-07T06:00:49.609Z,16.16
2022-09-07T06:01:47.373Z,16.15
2022-09-07T06:02:46.707Z,16.16
2022-09-07T06:03:46.532Z,16.16
2022-09-07T06:04:46.559Z,16.16
2022-09-07T06:05:46.497Z,16.16
2022-09-07T06:07:04.670Z,16.15
2022-09-07T06:07:47.480Z,16.15
2022-09-07T06:08:46.453Z,16.12
2022-09-07T06:10:47.463Z,16.05
2022-09-07T06:11:47.182Z,16.02
2022-09-07T06:12:49.012Z,16.01
2022-09-07T06:13:46.430Z,16.05
2022-09-07T06:14:46.503Z,16.02
2022-09-07T06:15:46.473Z,15.95
2022-09-07T06:16:46.401Z,15.91
2022-09-07T06:17:46.352Z,15.83
2022-09-07T06:18:46.314Z,15.82
2022-09-07T06:19:49.318Z,15.80
2022-09-07T06:20:49.298Z,15.84
2022-09-07T06:21:46.276Z,15.83
2022-09-07T06:22:46.293Z,15.90
2022-09-07T06:23:46.247Z,15.92
2022-09-07T06:24:46.225Z,15.95
2022-09-07T06:25:46.400Z,15.92
2022-09-07T06:26:46.198Z,15.84
2022-09-07T06:27:46.196Z,15.80
2022-09-07T06:28:49.148Z,15.75
2022-09-07T06:29:46.173Z,15.70
2022-09-07T06:30:46.149Z,15.70
2022-09-07T06:32:47.154Z,15.70
2022-09-07T06:33:46.110Z,15.73
2022-09-07T06:34:46.092Z,15.75
2022-09-07T06:35:46.086Z,15.73
2022-09-07T06:36:46.061Z,15.72
2022-09-07T06:37:46.086Z,15.70
2022-09-07T06:38:46.049Z,15.67
2022-09-07T06:39:49.083Z,15.64
2022-09-07T06:40:49.046Z,15.62
2022-09-07T06:42:01.454Z,15.59
2022-09-07T06:42:46.980Z,15.57
2022-09-07T06:43:46.181Z,15.54
2022-09-07T06:44:45.964Z,15.51
2022-09-07T06:45:46.219Z,15.49
2022-09-07T06:47:46.942Z,15.46
2022-09-07T06:48:45.896Z,15.42
2022-09-07T06:49:45.897Z,15.40
2022-09-07T06:50:45.872Z,15.42
2022-09-07T06:51:45.868Z,15.43
2022-09-07T06:53:47.331Z,15.51
2022-09-07T06:55:01.424Z,15.52
2022-09-07T06:55:46.798Z,15.55
2022-09-07T06:56:45.788Z,15.59
2022-09-07T06:57:45.784Z,15.64
2022-09-07T06:58:45.789Z,15.67
2022-09-07T06:59:48.740Z,15.73
2022-09-07T07:00:48.944Z,15.79
2022-09-07T07:01:45.718Z,15.80
2022-09-07T07:02:45.710Z,15.80
2022-09-07T07:03:45.814Z,15.83
2022-09-07T07:04:45.670Z,15.82
2022-09-07T07:05:45.664Z,15.82
2022-09-07T07:06:45.719Z,15.79
2022-09-07T07:07:45.634Z,15.75
2022-09-07T07:08:45.621Z,15.72
2022-09-07T07:09:45.607Z,15.70
2022-09-07T07:10:45.593Z,15.70
2022-09-07T07:11:45.576Z,15.75
2022-09-07T07:13:50.414Z,15.82
2022-09-07T07:14:50.398Z,15.79
2022-09-07T07:15:50.385Z,15.82
2022-09-07T07:16:50.433Z,15.86
2022-09-07T07:17:58.061Z,15.91
2022-09-07T07:18:51.348Z,15.97
2022-09-07T07:19:50.326Z,16.01
2022-09-07T07:20:50.321Z,16.09
2022-09-07T07:22:18.824Z,16.13
2022-09-07T07:22:51.315Z,16.20
2022-09-07T07:23:50.295Z,16.24
2022-09-07T07:24:50.257Z,16.21
2022-09-07T07:25:50.239Z,16.17
2022-09-07T07:26:50.229Z,16.16
2022-09-07T07:27:50.383Z,16.13
2022-09-07T07:29:05.511Z,16.08
2022-09-07T07:29:51.218Z,16.05
2022-09-07T07:30:50.210Z,16.02
2022-09-07T07:31:50.164Z,15.98
2022-09-07T07:32:53.224Z,15.95
2022-09-07T07:33:53.235Z,15.88
2022-09-07T07:34:50.115Z,15.84
2022-09-07T07:35:50.116Z,15.83
2022-09-07T07:36:50.114Z,15.86
2022-09-07T07:37:50.198Z,15.84
2022-09-07T07:39:05.347Z,15.86
2022-09-07T07:42:50.008Z,15.86
2022-09-07T07:43:49.997Z,15.84
2022-09-07T07:46:50.210Z,15.91
2022-09-07T07:47:49.938Z,15.94
2022-09-07T07:48:49.927Z,15.94
2022-09-07T07:49:50.044Z,15.95
2022-09-07T07:50:49.889Z,16.00
2022-09-07T07:53:54.113Z,16.17
2022-09-07T07:54:49.843Z,16.17
2022-09-07T07:55:49.833Z,16.24
2022-09-07T07:56:49.814Z,16.26
2022-09-07T07:57:49.801Z,16.31
2022-09-07T07:58:49.812Z,16.35
2022-09-07T07:59:49.823Z,16.39
2022-09-07T08:00:57.218Z,16.43
2022-09-07T08:01:50.845Z,16.47
2022-09-07T08:02:49.762Z,16.49
2022-09-07T08:03:49.713Z,16.51
2022-09-07T08:04:49.700Z,16.53
2022-09-07T08:05:49.756Z,16.56
2022-09-07T08:06:49.675Z,16.58
2022-09-07T08:07:49.663Z,16.64
2022-09-07T08:08:49.647Z,16.71
2022-09-07T08:09:49.636Z,16.69
2022-09-07T08:10:49.617Z,16.68
2022-09-07T08:11:49.628Z,16.68
2022-09-07T08:12:52.599Z,16.75
2022-09-07T08:13:52.588Z,16.86
2022-09-07T08:14:49.607Z,16.91
2022-09-07T08:15:49.662Z,17.02
2022-09-07T08:16:49.539Z,17.09
2022-09-07T08:17:49.519Z,17.22
2022-09-07T08:18:49.500Z,17.23
2022-09-07T08:19:49.497Z,17.29
2022-09-07T08:20:49.501Z,17.30
2022-09-07T08:21:49.499Z,17.33
2022-09-07T08:22:49.451Z,17.36
2022-09-07T08:23:49.441Z,17.39
2022-09-07T08:24:49.422Z,17.46
2022-09-07T08:25:49.413Z,17.52
2022-09-07T08:26:49.607Z,17.60
2022-09-07T08:27:49.460Z,17.68
2022-09-07T08:28:49.366Z,17.76
2022-09-07T08:29:49.356Z,17.85
2022-09-07T08:30:49.334Z,17.95
2022-09-07T08:31:49.376Z,18.04
2022-09-07T08:32:52.354Z,18.08
2022-09-07T08:33:52.316Z,18.11
2022-09-07T08:34:49.275Z,18.11
2022-09-07T08:35:49.266Z,18.20
2022-09-07T08:36:49.254Z,18.29
2022-09-07T08:37:49.245Z,18.29
2022-09-07T08:38:49.286Z,18.35
2022-09-07T08:39:49.239Z,18.37
2022-09-07T08:40:49.196Z,18.43
2022-09-07T08:41:49.186Z,18.53
2022-09-07T08:42:49.168Z,18.53
2022-09-07T08:43:49.410Z,18.59
2022-09-07T08:44:49.169Z,18.73
2022-09-07T08:45:49.128Z,18.83
2022-09-07T08:46:49.176Z,18.95
2022-09-07T08:47:49.101Z,19.00
2022-09-07T08:48:49.081Z,19.07
2022-09-07T08:49:49.110Z,19.11
2022-09-07T08:50:49.062Z,19.18
2022-09-07T08:51:49.049Z,19.21
2022-09-07T08:52:52.023Z,19.22
2022-09-07T08:53:52.035Z,19.16
2022-09-07T08:54:49.044Z,19.09
2022-09-07T08:55:48.996Z,18.98
2022-09-07T08:57:50.148Z,18.92
2022-09-07T08:58:50.014Z,18.93
2022-09-07T08:59:48.932Z,18.96
2022-09-07T09:00:49.248Z,19.04
2022-09-07T09:05:50.048Z,18.88
2022-09-07T09:06:49.025Z,18.68
2022-09-07T09:07:48.819Z,18.56
2022-09-07T09:08:48.808Z,18.59
2022-09-07T09:09:48.800Z,18.70
2022-09-07T09:10:48.778Z,18.86
2022-09-07T09:11:48.769Z,19.04
2022-09-07T09:12:51.922Z,19.12
2022-09-07T09:13:51.752Z,19.24
2022-09-07T09:14:48.722Z,19.37
2022-09-07T09:15:48.773Z,19.29
2022-09-07T09:16:48.695Z,19.22
2022-09-07T09:17:48.682Z,19.22
2022-09-07T09:18:48.724Z,19.15
2022-09-07T09:19:48.654Z,19.14
2022-09-07T09:20:48.645Z,19.11
2022-09-07T09:21:48.633Z,19.09
2022-09-07T09:22:48.615Z,19.16
2022-09-07T09:23:48.608Z,19.30
2022-09-07T09:24:48.616Z,19.36
2022-09-07T09:25:48.598Z,19.45
2022-09-07T09:26:48.557Z,19.63
2022-09-07T09:27:48.549Z,19.74
2022-09-07T09:28:48.597Z,19.84
2022-09-07T09:29:48.518Z,19.86
2022-09-07T09:30:48.548Z,19.95
2022-09-07T09:31:48.497Z,19.95
2022-09-07T09:32:51.471Z,20.11
2022-09-07T09:33:51.499Z,20.25
2022-09-07T09:34:48.451Z,20.28
2022-09-07T09:35:48.446Z,20.41
2022-09-07T09:36:48.454Z,20.58
2022-09-07T09:37:48.412Z,20.67
2022-09-07T09:38:48.395Z,20.69
2022-09-07T09:39:51.032Z,20.51
2022-09-07T09:40:49.372Z,20.19
2022-09-07T09:41:48.384Z,20.25
2022-09-07T09:42:48.346Z,20.34
2022-09-07T09:43:48.332Z,20.51
2022-09-07T09:44:48.318Z,20.65
2022-09-07T09:47:29.679Z,20.69
2022-09-07T09:47:49.345Z,20.60
2022-09-07T09:48:48.266Z,20.55
2022-09-07T09:49:48.248Z,20.59
2022-09-07T09:52:52.361Z,20.52
2022-09-07T09:53:51.204Z,20.63
2022-09-07T09:54:48.177Z,20.59
2022-09-07T09:55:48.175Z,20.65
2022-09-07T09:56:48.149Z,20.69
2022-09-07T09:59:04.625Z,20.78
2022-09-07T09:59:05.110Z,20.88
2022-09-07T09:59:58.322Z,21.00
2022-09-07T10:03:57.585Z,21.11
2022-09-07T10:04:49.065Z,21.09
2022-09-07T10:05:48.026Z,20.99
2022-09-07T10:06:48.023Z,21.05
2022-09-07T10:07:48.003Z,21.17
2022-09-07T10:08:47.985Z,21.25
2022-09-07T10:09:48.037Z,21.37
2022-09-07T10:10:47.960Z,21.51
2022-09-07T10:12:51.927Z,21.51
2022-09-07T10:13:50.928Z,21.60
2022-09-07T10:14:47.910Z,21.60
2022-09-07T10:15:47.966Z,21.54
2022-09-07T10:16:47.869Z,21.40
2022-09-07T10:17:47.859Z,21.24
2022-09-07T10:18:47.881Z,21.22
2022-09-07T10:19:47.837Z,21.33
2022-09-07T10:20:47.819Z,21.50
2022-09-07T10:21:47.832Z,21.55
2022-09-07T10:22:51.447Z,21.57
2022-09-07T10:23:47.792Z,21.66
2022-09-07T10:24:47.762Z,21.73
2022-09-07T10:25:47.752Z,21.89
2022-09-07T10:26:47.747Z,21.88
2022-09-07T10:27:47.754Z,21.98
2022-09-07T10:29:48.694Z,22.11
2022-09-07T10:30:47.707Z,22.22
2022-09-07T10:31:47.666Z,22.35
2022-09-07T10:32:50.677Z,22.45
2022-09-07T10:34:48.627Z,22.50
2022-09-07T10:35:47.892Z,22.55
2022-09-07T10:36:47.597Z,22.63
2022-09-07T10:37:47.638Z,22.70
2022-09-07T10:38:47.567Z,22.80
2022-09-07T10:39:47.568Z,22.91
2022-09-07T10:40:47.543Z,22.94
2022-09-07T10:41:47.533Z,23.02
2022-09-07T10:43:48.661Z,22.98
2022-09-07T10:44:47.493Z,22.83
2022-09-07T10:45:47.493Z,22.75
2022-09-07T10:47:02.914Z,22.83
2022-09-07T10:47:48.457Z,22.83
2022-09-07T10:48:47.433Z,22.81
2022-09-07T10:50:48.403Z,22.96
2022-09-07T10:51:47.396Z,23.03
2022-09-07T10:52:50.381Z,23.18
2022-09-07T10:54:30.084Z,23.27
2022-09-07T10:54:48.533Z,23.28
2022-09-07T10:55:47.337Z,23.34
2022-09-07T10:56:47.318Z,23.43
2022-09-07T10:57:49.304Z,23.44
2022-09-07T10:59:03.551Z,23.50
2022-09-07T11:00:48.424Z,23.27
2022-09-07T11:01:47.319Z,23.03
2022-09-07T11:03:48.278Z,23.08
2022-09-07T11:04:47.224Z,23.09
2022-09-07T11:05:47.223Z,23.00
2022-09-07T11:06:47.232Z,23.06
2022-09-07T11:07:47.213Z,23.15
2022-09-07T11:09:48.154Z,23.21
2022-09-07T11:10:47.139Z,23.40
2022-09-07T11:12:03.583Z,23.51
2022-09-07T11:12:51.113Z,23.13
2022-09-07T11:14:11.394Z,23.23
2022-09-07T11:14:48.083Z,23.31
2022-09-07T11:15:47.090Z,23.36
2022-09-07T11:16:51.060Z,23.51
2022-09-07T11:17:52.062Z,23.63
2022-09-07T11:18:48.019Z,23.63
2022-09-07T11:19:47.068Z,23.43
2022-09-07T11:20:47.001Z,23.47
2022-09-07T11:22:02.342Z,23.59
2022-09-07T11:22:47.969Z,23.76
2022-09-07T11:23:46.958Z,23.91
2022-09-07T11:24:47.194Z,23.99
2022-09-07T11:25:46.961Z,24.08
2022-09-07T11:26:46.914Z,23.98
2022-09-07T11:27:46.943Z,23.91
2022-09-07T11:28:47.200Z,23.73
2022-09-07T11:29:46.973Z,23.78
2022-09-07T11:30:46.935Z,23.86
2022-09-07T11:31:46.856Z,24.05
2022-09-07T11:32:49.835Z,24.18
2022-09-07T11:34:47.808Z,24.42
2022-09-07T11:35:46.828Z,24.53
2022-09-07T11:36:46.787Z,24.57
2022-09-07T11:37:46.767Z,24.50
2022-09-07T11:38:46.749Z,24.58
2022-09-07T11:39:46.793Z,24.66
2022-09-07T11:40:46.759Z,24.76
2022-09-07T11:41:46.748Z,24.55
2022-09-07T11:42:46.723Z,24.53
2022-09-07T11:43:46.696Z,24.36
2022-09-07T11:44:46.683Z,24.10
2022-09-07T11:45:46.672Z,23.98
2022-09-07T11:46:46.770Z,23.92
2022-09-07T11:47:46.645Z,23.95
2022-09-07T11:48:46.633Z,23.91
2022-09-07T11:49:52.018Z,23.80
2022-09-07T11:50:47.612Z,23.83
2022-09-07T11:51:46.635Z,23.86
2022-09-07T11:52:53.607Z,23.96
2022-09-07T11:53:49.575Z,24.10
2022-09-07T11:54:46.562Z,24.24
2022-09-07T11:55:46.539Z,24.38
2022-09-07T11:56:46.530Z,24.40
2022-09-07T11:57:46.538Z,24.43
2022-09-07T11:58:46.498Z,24.43
2022-09-07T11:59:46.488Z,24.43
2022-09-07T12:00:46.472Z,24.29
2022-09-07T12:01:46.459Z,24.18
2022-09-07T12:02:59.296Z,24.17
2022-09-07T12:03:47.639Z,24.18
2022-09-07T12:04:46.435Z,24.20
2022-09-07T12:05:46.407Z,24.32
2022-09-07T12:06:46.396Z,24.45
2022-09-07T12:07:46.383Z,24.61
2022-09-07T12:08:46.362Z,24.74
2022-09-07T12:09:46.374Z,24.66
2022-09-07T12:10:46.336Z,24.70
2022-09-07T12:11:46.323Z,24.69
2022-09-07T12:12:49.304Z,24.69
2022-09-07T12:13:49.345Z,24.78
2022-09-07T12:14:46.279Z,24.73
2022-09-07T12:15:46.327Z,24.76
2022-09-07T12:16:46.247Z,24.78
2022-09-07T12:17:46.228Z,24.80
2022-09-07T12:18:46.229Z,24.85
2022-09-07T12:19:46.228Z,24.91
2022-09-07T12:20:46.199Z,24.84
2022-09-07T12:21:46.189Z,24.78
2022-09-07T12:22:46.219Z,24.91
2022-09-07T12:23:46.153Z,24.96
2022-09-07T12:24:46.142Z,24.99
2022-09-07T12:25:46.122Z,25.11
2022-09-07T12:26:46.112Z,25.22
2022-09-07T12:27:46.091Z,25.31
2022-09-07T12:28:46.112Z,25.35
2022-09-07T12:29:46.063Z,25.48
2022-09-07T12:30:46.082Z,25.58
2022-09-07T12:31:57.811Z,25.59
2022-09-07T12:32:54.346Z,25.59
2022-09-07T12:33:50.073Z,25.73
2022-09-07T12:34:46.003Z,25.62
2022-09-07T12:35:45.986Z,25.65
2022-09-07T12:36:45.976Z,25.72
2022-09-07T12:37:45.958Z,25.70
2022-09-07T12:38:45.955Z,25.66
2022-09-07T12:39:46.033Z,25.66
2022-09-07T12:40:45.919Z,25.70
2022-09-07T12:41:47.324Z,25.73
2022-09-07T12:42:45.901Z,25.68
2022-09-07T12:43:45.870Z,25.72
2022-09-07T12:44:45.860Z,25.70
2022-09-07T12:45:45.865Z,25.80
2022-09-07T12:46:46.667Z,25.90
2022-09-07T12:47:45.823Z,26.06
2022-09-07T12:48:45.802Z,26.19
2022-09-07T12:49:45.783Z,26.38
2022-09-07T12:50:45.818Z,26.44
2022-09-07T12:52:09.166Z,26.51
2022-09-07T12:52:49.742Z,26.52
2022-09-07T12:53:48.737Z,26.65
2022-09-07T12:54:45.716Z,26.71
2022-09-07T12:56:46.917Z,26.84
2022-09-07T12:57:45.680Z,26.84
2022-09-07T12:58:45.666Z,26.78
2022-09-07T12:59:45.647Z,26.66
2022-09-07T13:00:45.640Z,26.55
2022-09-07T13:01:45.767Z,26.47
2022-09-07T13:02:45.700Z,26.51
2022-09-07T13:03:52.806Z,26.51
2022-09-07T13:04:46.584Z,26.51
2022-09-07T13:05:45.562Z,26.43
2022-09-07T13:07:46.548Z,26.37
2022-09-07T13:08:45.523Z,26.31
2022-09-07T13:09:45.545Z,26.26
2022-09-07T13:10:45.505Z,26.16
2022-09-07T13:11:45.785Z,26.09
2022-09-07T13:12:57.317Z,26.05
2022-09-07T13:14:08.483Z,26.07
2022-09-07T13:14:46.446Z,26.16
2022-09-07T13:15:45.531Z,26.22
2022-09-07T13:17:46.410Z,26.25
2022-09-07T13:18:45.488Z,26.23
2022-09-07T13:19:45.430Z,26.19
2022-09-07T13:20:45.451Z,26.15
2022-09-07T13:21:45.389Z,26.15
2022-09-07T13:22:45.629Z,26.09
2022-09-07T13:23:45.764Z,26.15
2022-09-07T13:24:46.783Z,26.18
2022-09-07T13:25:45.322Z,26.09
2022-09-07T13:26:49.300Z,26.02
2022-09-07T13:27:46.345Z,25.96
2022-09-07T13:28:45.304Z,25.96
2022-09-07T13:29:45.367Z,25.98
2022-09-07T13:30:45.324Z,25.99